createdAt,value
2022-08-11T00:05:04.826Z,31
2022-08-11T00:10:45.330Z,30.9
2022-08-11T00:16:32.454Z,30.9
2022-08-11T00:23:43.546Z,30.9
2022-08-11T00:29:51.593Z,30.9
2022-08-11T00:36:30.142Z,30.9
2022-08-11T00:42:15.234Z,30.9
2022-08-11T00:47:41.951Z,30.9
2022-08-11T00:53:59.134Z,30.9
2022-08-11T01:00:24.273Z,30.9
2022-08-11T01:06:14.265Z,30.9
2022-08-11T01:12:28.605Z,30.9
2022-08-11T01:18:27.832Z,30.9
2022-08-11T01:24:58.866Z,30.9
2022-08-11T01:31:17.962Z,30.9
2022-08-11T01:36:56.832Z,30.8
2022-08-11T01:42:18.210Z,30.8
2022-08-11T01:47:50.541Z,30.8
2022-08-11T01:54:29.807Z,30.8
2022-08-11T02:00:06.235Z,30.8
2022-08-11T02:05:52.760Z,30.8
2022-08-11T02:12:02.849Z,30.8
2022-08-11T02:17:35.303Z,30.7
2022-08-11T02:23:23.063Z,30.8
2022-08-11T02:29:52.332Z,30.7
2022-08-11T02:36:55.377Z,30.7
2022-08-11T02:42:31.928Z,30.6
2022-08-11T02:48:33.059Z,30.6
2022-08-11T02:54:29.234Z,30.6
2022-08-11T03:00:27.462Z,30.6
2022-08-11T03:05:59.978Z,30.6
2022-08-11T03:11:44.012Z,30.6
2022-08-11T03:17:12.895Z,30.6
2022-08-11T03:23:36.914Z,30.6
2022-08-11T03:29:05.012Z,30.6
2022-08-11T03:34:46.401Z,30.6
2022-08-11T03:41:02.605Z,30.6
2022-08-11T03:47:38.144Z,30.6
2022-08-11T03:53:30.433Z,30.6
2022-08-11T03:59:14.186Z,30.6
2022-08-11T04:04:53.652Z,30.6
2022-08-11T04:10:36.367Z,30.6
2022-08-11T04:16:44.963Z,30.5
2022-08-11T04:22:28.466Z,30.4
2022-08-11T04:30:40.477Z,30.4
2022-08-11T04:36:58.691Z,30.4
2022-08-11T04:42:41.640Z,30.6
2022-08-11T04:49:09.095Z,30.6
2022-08-11T04:55:25.080Z,30.5
2022-08-11T05:01:05.043Z,30.4
2022-08-11T05:06:46.989Z,30.4
2022-08-11T05:12:14.414Z,30.3
2022-08-11T05:17:53.571Z,30.3
2022-08-11T05:23:40.702Z,30.3
2022-08-11T05:30:59.260Z,30.3
2022-08-11T05:37:42.733Z,30.3
2022-08-11T05:44:38.003Z,30.3
2022-08-11T05:51:10.411Z,30.3
2022-08-11T05:58:07.146Z,30.3
2022-08-11T06:03:56.606Z,30.3
2022-08-11T06:09:44.888Z,38.4
2022-08-11T06:15:40.218Z,39.2
2022-08-11T06:21:29.853Z,38.1
2022-08-11T06:27:29.608Z,37
2022-08-11T06:33:20.298Z,43.2
2022-08-11T06:39:04.849Z,44.1
2022-08-11T06:44:45.313Z,44.7
2022-08-11T06:50:26.899Z,45.4
2022-08-11T06:58:04.819Z,46.1
2022-08-11T07:03:28.225Z,46.6
2022-08-11T07:10:40.092Z,47.2
2022-08-11T07:17:35.890Z,48.2
2022-08-11T07:24:00.044Z,48.9
2022-08-11T07:30:08.804Z,49.9
2022-08-11T07:36:18.993Z,50.4
2022-08-11T07:42:05.060Z,50.9
2022-08-11T07:47:44.101Z,51.6
2022-08-11T07:53:27.077Z,52.3
2022-08-11T08:02:00.594Z,53.1
2022-08-11T08:08:20.699Z,53.8
2022-08-11T08:13:43.333Z,54.4
2022-08-11T08:19:47.763Z,54.1
2022-08-11T08:26:13.663Z,54.1
2022-08-11T08:32:00.989Z,54.8
2022-08-11T08:38:20.528Z,54.4
2022-08-11T08:44:51.803Z,54.8
2022-08-11T08:50:53.196Z,54.7
2022-08-11T08:57:36.829Z,55.6
2022-08-11T09:04:04.339Z,56.1
2022-08-11T09:09:39.133Z,56.6
2022-08-11T09:15:15.039Z,57
2022-08-11T09:21:04.751Z,57.4
2022-08-11T09:28:10.527Z,57.9
2022-08-11T09:33:52.254Z,58.3
2022-08-11T09:46:13.296Z,59
2022-08-11T09:52:02.360Z,59.4
2022-08-11T09:58:59.434Z,59.8
2022-08-11T10:04:46.383Z,60.1
2022-08-11T10:10:35.752Z,60.5
2022-08-11T10:18:10.195Z,60.9
2022-08-11T10:24:19.662Z,61.3
2022-08-11T10:31:37.619Z,61.6
2022-08-11T10:38:59.067Z,62.2
2022-08-11T10:46:13.196Z,62.4
2022-08-11T10:52:25.069Z,62.8
2022-08-11T10:58:21.857Z,63
2022-08-11T11:04:28.567Z,63.3
2022-08-11T11:11:03.980Z,63.7
2022-08-11T11:16:56.390Z,63.9
2022-08-11T11:23:06.434Z,64.1
2022-08-11T11:28:56.809Z,64.4
2022-08-11T11:35:26.541Z,64.6
2022-08-11T11:41:24.560Z,64.6
2022-08-11T11:47:21.663Z,64.7
2022-08-11T11:53:13.332Z,65.1
2022-08-11T11:59:08.148Z,65.3
2022-08-11T12:05:00.356Z,65.5
2022-08-11T12:11:01.835Z,65.6
2022-08-11T12:17:39.933Z,65.8
2022-08-11T12:32:00.335Z,65.8
2022-08-11T12:38:01.283Z,64.6
2022-08-11T12:45:55.605Z,63.5
2022-08-11T12:53:22.959Z,62.6
2022-08-11T12:59:39.348Z,59.7
2022-08-11T13:05:24.096Z,56.8
2022-08-11T13:11:23.155Z,54.1
2022-08-11T13:24:00.210Z,58.8
2022-08-11T13:30:11.634Z,58.5
2022-08-11T13:35:57.875Z,55.4
2022-08-11T13:43:07.562Z,58.9
2022-08-11T13:48:49.009Z,55.9
2022-08-11T13:54:35.214Z,53.4
2022-08-11T14:10:00.303Z,54.8
2022-08-11T14:17:06.238Z,51.8
2022-08-11T14:23:49.684Z,49.9
2022-08-11T14:31:30.615Z,48.7
2022-08-11T14:38:01.403Z,47.6
2022-08-11T14:44:47.427Z,46.8
2022-08-11T14:51:14.756Z,46.1
2022-08-11T14:57:05.964Z,45.5
2022-08-11T15:03:20.043Z,45
2022-08-11T15:10:31.086Z,44.5
2022-08-11T15:16:38.837Z,44.1
2022-08-11T15:22:32.909Z,43.8
2022-08-11T15:28:10.942Z,43.4
2022-08-11T15:34:24.075Z,43.1
2022-08-11T15:40:48.207Z,42.9
2022-08-11T15:47:03.914Z,42.6
2022-08-11T15:53:25.407Z,42.3
2022-08-11T15:59:49.992Z,42
2022-08-11T16:07:01.330Z,41.5
2022-08-11T16:13:26.048Z,41.1
2022-08-11T16:19:07.972Z,40.8
2022-08-11T16:27:57.737Z,40.6
2022-08-11T16:34:25.062Z,40.3
2022-08-11T16:40:07.777Z,40.1
2022-08-11T16:46:50.318Z,39.9
2022-08-11T16:53:48.833Z,39.7
2022-08-11T17:00:47.775Z,39.5
2022-08-11T17:06:28.596Z,39.4
2022-08-11T17:13:06.212Z,39.3
2022-08-11T17:18:50.936Z,39.2
2022-08-11T17:26:20.334Z,38.8
2022-08-11T17:32:28.413Z,38.4
2022-08-11T17:38:25.811Z,38.1
2022-08-11T17:44:15.572Z,37.9
2022-08-11T17:49:56.059Z,37.8
2022-08-11T17:56:42.769Z,37.6
2022-08-11T18:02:51.718Z,37.4
2022-08-11T18:08:49.102Z,37.3
2022-08-11T18:15:19.470Z,37.3
2022-08-11T18:20:53.466Z,37.2
2022-08-11T18:27:13.939Z,37.1
2022-08-11T18:34:06.766Z,37
2022-08-11T18:39:58.123Z,36.9
2022-08-11T18:46:06.151Z,36.8
2022-08-11T18:53:27.097Z,36.8
2022-08-11T18:59:17.213Z,36.7
2022-08-11T19:05:10.986Z,36.6
2022-08-11T19:12:16.960Z,36.5
2022-08-11T19:18:18.564Z,36.4
2022-08-11T19:24:02.316Z,36.4
2022-08-11T19:30:02.258Z,36.3
2022-08-11T19:36:14.624Z,36.3
2022-08-11T19:42:30.343Z,35.9
2022-08-11T19:49:04.312Z,35.6
2022-08-11T19:54:57.262Z,35.4
2022-08-11T20:00:29.881Z,35.3
2022-08-11T20:06:49.455Z,35.2
2022-08-11T20:13:18.209Z,35.1
2022-08-11T20:18:49.778Z,35.1
2022-08-11T20:25:08.751Z,35
2022-08-11T20:31:24.920Z,34.9
2022-08-11T20:36:56.418Z,34.9
2022-08-11T20:43:06.271Z,34.9
2022-08-11T20:50:36.014Z,34.8
2022-08-11T20:57:18.623Z,34.8
2022-08-11T21:16:25.849Z,34.6
2022-08-11T21:24:14.108Z,34.6
2022-08-11T21:30:07.665Z,34.5
2022-08-11T21:35:46.827Z,34.4
2022-08-11T21:41:39.795Z,34.4
2022-08-11T21:47:42.687Z,34.4
2022-08-11T21:53:27.480Z,34.4
2022-08-11T21:59:12.189Z,34.4
2022-08-11T22:04:58.430Z,34.4
2022-08-11T22:10:58.151Z,34.3
2022-08-11T22:17:49.470Z,34.3
2022-08-11T22:24:46.783Z,34.3
2022-08-11T22:31:12.606Z,34.3
2022-08-11T22:37:27.060Z,34.3
2022-08-11T22:43:06.003Z,34.3
2022-08-11T22:48:29.895Z,34.2
2022-08-11T22:54:31.459Z,34.2
2022-08-11T23:00:14.911Z,34.1
2022-08-11T23:06:31.641Z,34.1
2022-08-11T23:12:43.352Z,34.1
2022-08-11T23:18:11.309Z,34
2022-08-11T23:25:18.658Z,34
2022-08-11T23:31:00.724Z,34
2022-08-11T23:38:41.823Z,33.9
2022-08-11T23:44:25.216Z,33.9
2022-08-11T23:50:19.776Z,33.9
2022-08-11T23:56:16.431Z,33.9
